createdAt,value
2022-11-14T00:01:28.769Z,10.02
2022-11-14T00:03:55.630Z,9.79
2022-11-14T00:06:22.492Z,9.76
2022-11-14T00:08:49.313Z,10.28
2022-11-14T00:11:16.243Z,10.22
2022-11-14T00:13:47.750Z,10.10
2022-11-14T00:16:16.880Z,9.58
2022-11-14T00:18:43.711Z,9.63
2022-11-14T00:21:10.580Z,9.35
2022-11-14T00:23:39.905Z,9.38
2022-11-14T00:26:09.311Z,9.25
2022-11-14T00:28:36.236Z,9.34
2022-11-14T00:31:06.123Z,9.42
2022-11-14T00:33:33.079Z,9.74
2022-11-14T00:35:59.916Z,9.61
2022-11-14T00:38:26.947Z,9.57
2022-11-14T00:40:54.058Z,9.59
2022-11-14T00:43:22.999Z,9.78
2022-11-14T00:45:50.109Z,9.50
2022-11-14T00:48:21.586Z,9.36
2022-11-14T00:50:50.634Z,9.38
2022-11-14T00:53:17.530Z,9.47
2022-11-14T00:55:44.471Z,9.50
2022-11-14T00:58:11.392Z,9.73
2022-11-14T01:00:39.046Z,9.62
2022-11-14T01:03:10.988Z,9.58
2022-11-14T01:05:47.681Z,9.64
2022-11-14T01:08:16.552Z,9.60
2022-11-14T01:10:47.814Z,9.65
2022-11-14T01:13:16.631Z,9.78
2022-11-14T01:15:46.981Z,9.70
2022-11-14T01:18:18.930Z,9.52
2022-11-14T01:20:48.170Z,9.36
2022-11-14T01:23:16.524Z,9.53
2022-11-14T01:25:44.134Z,9.71
2022-11-14T01:28:17.516Z,9.69
2022-11-14T01:30:44.948Z,9.42
2022-11-14T01:33:11.835Z,9.26
2022-11-14T01:35:39.246Z,9.32
2022-11-14T01:38:06.666Z,9.52
2022-11-14T01:40:34.493Z,9.58
2022-11-14T01:43:16.646Z,9.58
2022-11-14T01:45:55.029Z,9.47
2022-11-14T01:48:34.442Z,9.38
2022-11-14T01:51:11.488Z,9.29
2022-11-14T01:53:38.584Z,9.21
2022-11-14T01:56:10.013Z,9.29
2022-11-14T01:58:41.596Z,9.46
2022-11-14T02:01:08.474Z,9.39
2022-11-14T02:03:39.528Z,9.59
2022-11-14T02:06:12.699Z,9.68
2022-11-14T02:08:42.839Z,9.56
2022-11-14T02:11:17.832Z,9.61
2022-11-14T02:13:44.764Z,9.68
2022-11-14T02:16:14.308Z,9.87
2022-11-14T02:18:41.184Z,9.88
2022-11-14T02:21:10.161Z,9.60
2022-11-14T02:23:41.515Z,9.56
2022-11-14T02:26:08.392Z,9.24
2022-11-14T02:28:37.787Z,9.45
2022-11-14T02:31:07.139Z,9.59
2022-11-14T02:33:33.993Z,9.32
2022-11-14T02:36:00.824Z,9.18
2022-11-14T02:38:28.030Z,9.38
2022-11-14T02:40:55.161Z,9.48
2022-11-14T02:43:22.007Z,9.29
2022-11-14T02:45:48.887Z,9.37
2022-11-14T02:48:15.824Z,9.44
2022-11-14T02:50:43.262Z,9.32
2022-11-14T02:53:10.174Z,9.50
2022-11-14T02:55:41.593Z,9.21
2022-11-14T02:58:08.550Z,9.45
2022-11-14T03:00:38.486Z,9.37
2022-11-14T03:03:11.356Z,9.44
2022-11-14T03:05:40.520Z,9.77
2022-11-14T03:08:14.445Z,9.86
2022-11-14T03:10:46.125Z,9.76
2022-11-14T03:13:17.333Z,9.67
2022-11-14T03:15:44.247Z,9.24
2022-11-14T03:18:13.763Z,9.31
2022-11-14T03:20:40.906Z,9.22
2022-11-14T03:23:10.716Z,9.21
2022-11-14T03:25:39.892Z,9.49
2022-11-14T03:28:11.382Z,9.42
2022-11-14T03:30:38.231Z,9.44
2022-11-14T03:33:05.077Z,9.70
2022-11-14T03:35:31.928Z,9.54
2022-11-14T03:38:00.894Z,9.50
2022-11-14T03:40:27.816Z,9.71
2022-11-14T03:42:54.679Z,9.93
2022-11-14T03:45:21.567Z,10.04
2022-11-14T03:47:48.388Z,9.51
2022-11-14T03:50:15.260Z,9.24
2022-11-14T03:52:42.145Z,9.14
2022-11-14T03:55:09.154Z,9.30
2022-11-14T03:57:38.993Z,9.20
2022-11-14T04:00:09.545Z,9.39
2022-11-14T04:02:39.485Z,9.51
2022-11-14T04:05:07.034Z,9.78
2022-11-14T04:07:33.964Z,9.80
2022-11-14T04:10:02.992Z,9.84
2022-11-14T04:12:31.972Z,10.01
2022-11-14T04:14:58.796Z,9.60
2022-11-14T04:17:27.953Z,9.56
2022-11-14T04:19:57.831Z,9.62
2022-11-14T04:22:26.892Z,9.43
2022-11-14T04:24:53.733Z,9.46
2022-11-14T04:27:27.695Z,9.31
2022-11-14T04:29:56.792Z,9.51
2022-11-14T04:32:26.171Z,9.61
2022-11-14T04:34:56.446Z,9.63
2022-11-14T04:37:25.573Z,9.60
2022-11-14T04:39:58.544Z,9.66
2022-11-14T04:42:28.180Z,9.62
2022-11-14T04:44:55.126Z,9.50
2022-11-14T04:47:22.055Z,9.33
2022-11-14T04:49:51.263Z,8.98
2022-11-14T04:52:22.879Z,9.14
2022-11-14T04:54:49.752Z,9.45
2022-11-14T04:57:17.838Z,9.50
2022-11-14T04:59:44.751Z,9.50
2022-11-14T05:02:13.947Z,9.55
2022-11-14T05:04:44.424Z,9.63
2022-11-14T05:07:11.751Z,9.47
2022-11-14T05:09:38.673Z,9.44
2022-11-14T05:12:08.301Z,9.76
2022-11-14T05:14:38.619Z,9.67
2022-11-14T05:17:07.800Z,9.57
2022-11-14T05:19:34.696Z,9.43
2022-11-14T05:22:06.256Z,9.51
2022-11-14T05:24:35.630Z,9.28
2022-11-14T05:27:02.568Z,9.22
2022-11-14T05:29:31.895Z,9.15
2022-11-14T05:32:01.267Z,8.93
2022-11-14T05:34:28.250Z,8.99
2022-11-14T05:36:57.648Z,9.06
2022-11-14T05:39:24.544Z,9.10
2022-11-14T05:41:51.425Z,9.21
2022-11-14T05:44:22.829Z,9.31
2022-11-14T05:46:49.723Z,9.17
2022-11-14T05:49:20.734Z,9.04
2022-11-14T05:51:51.366Z,9.11
2022-11-14T05:54:18.230Z,9.24
2022-11-14T05:56:47.661Z,9.04
2022-11-14T05:59:14.486Z,8.95
2022-11-14T06:01:41.461Z,9.06
2022-11-14T06:04:17.959Z,9.12
2022-11-14T06:06:49.630Z,9.25
2022-11-14T06:09:16.523Z,9.50
2022-11-14T06:11:43.437Z,9.43
2022-11-14T06:14:11.270Z,9.17
2022-11-14T06:16:41.323Z,8.97
2022-11-14T06:19:08.177Z,8.88
2022-11-14T06:21:35.047Z,9.07
2022-11-14T06:24:02.050Z,9.32
2022-11-14T06:26:31.359Z,8.97
2022-11-14T06:29:01.433Z,9.17
2022-11-14T06:31:30.641Z,9.31
2022-11-14T06:33:57.458Z,9.19
2022-11-14T06:36:26.962Z,9.19
2022-11-14T06:38:56.316Z,8.99
2022-11-14T06:41:28.324Z,9.05
2022-11-14T06:43:55.334Z,8.48
2022-11-14T06:46:23.818Z,8.15
2022-11-14T06:48:52.551Z,8.28
2022-11-14T06:51:22.017Z,8.66
2022-11-14T06:53:48.965Z,8.74
2022-11-14T06:56:21.898Z,8.59
2022-11-14T06:58:52.115Z,8.78
2022-11-14T07:01:27.340Z,8.73
2022-11-14T07:03:54.378Z,8.73
2022-11-14T07:06:24.890Z,8.59
2022-11-14T07:08:56.208Z,8.57
2022-11-14T07:11:33.198Z,8.48
2022-11-14T07:14:03.461Z,8.62
2022-11-14T07:16:36.820Z,8.60
2022-11-14T07:19:11.074Z,8.48
2022-11-14T07:21:38.814Z,8.55
2022-11-14T07:24:06.153Z,8.57
2022-11-14T07:26:35.318Z,8.56
2022-11-14T07:29:03.060Z,8.59
2022-11-14T07:31:32.343Z,8.87
2022-11-14T07:33:59.463Z,8.63
2022-11-14T07:36:26.342Z,8.71
2022-11-14T07:38:55.391Z,8.69
2022-11-14T07:41:25.062Z,9.03
2022-11-14T07:43:51.992Z,8.61
2022-11-14T07:46:21.384Z,8.54
2022-11-14T07:48:48.203Z,8.61
2022-11-14T07:51:20.235Z,8.64
2022-11-14T07:53:49.621Z,8.69
2022-11-14T07:56:20.228Z,8.54
2022-11-14T07:58:50.098Z,8.58
2022-11-14T08:01:16.947Z,8.44
2022-11-14T08:03:46.111Z,8.72
2022-11-14T08:06:19.438Z,8.95
2022-11-14T08:08:46.329Z,8.97
2022-11-14T08:11:36.431Z,8.92
2022-11-14T08:14:05.468Z,8.69
2022-11-14T08:16:32.369Z,9.01
2022-11-14T08:19:04.696Z,8.85
2022-11-14T08:21:31.534Z,8.78
2022-11-14T08:24:00.912Z,8.94
2022-11-14T08:26:31.535Z,9.11
2022-11-14T08:29:01.292Z,8.97
2022-11-14T08:31:28.617Z,8.89
2022-11-14T08:33:55.566Z,8.90
2022-11-14T08:36:25.560Z,8.90
2022-11-14T08:39:00.534Z,8.83
2022-11-14T08:41:31.312Z,8.86
2022-11-14T08:44:02.766Z,8.78
2022-11-14T08:46:29.752Z,8.94
2022-11-14T08:48:56.665Z,9.20
2022-11-14T08:51:23.642Z,9.63
2022-11-14T08:53:53.600Z,9.98
2022-11-14T08:56:20.493Z,9.38
2022-11-14T08:58:47.325Z,9.13
2022-11-14T09:01:17.178Z,9.51
2022-11-14T09:03:44.162Z,9.41
2022-11-14T09:06:11.218Z,9.34
2022-11-14T09:08:38.095Z,9.68
2022-11-14T09:11:09.235Z,9.77
2022-11-14T09:13:36.830Z,9.70
2022-11-14T09:16:08.594Z,9.76
2022-11-14T09:18:37.816Z,9.94
2022-11-14T09:21:12.524Z,10.02
2022-11-14T09:23:39.460Z,10.24
2022-11-14T09:26:08.896Z,9.80
2022-11-14T09:28:36.896Z,9.67
2022-11-14T09:31:07.522Z,9.70
2022-11-14T09:33:35.478Z,10.17
2022-11-14T09:36:08.589Z,10.17
2022-11-14T09:38:40.039Z,10.19
2022-11-14T09:41:40.247Z,10.23
2022-11-14T09:44:39.258Z,10.09
2022-11-14T09:47:21.009Z,10.14
2022-11-14T09:49:51.770Z,9.74
2022-11-14T09:52:48.038Z,9.77
2022-11-14T09:55:21.961Z,10.00
2022-11-14T09:57:48.990Z,9.99
2022-11-14T10:00:23.343Z,9.92
2022-11-14T10:03:25.331Z,10.29
2022-11-14T10:06:32.734Z,10.50
2022-11-14T10:09:30.778Z,10.63
2022-11-14T10:12:15.590Z,10.50
2022-11-14T10:14:58.527Z,10.64
2022-11-14T10:17:56.091Z,10.81
2022-11-14T10:20:51.059Z,10.68
2022-11-14T10:24:15.377Z,10.76
2022-11-14T10:27:42.043Z,11.18
2022-11-14T10:30:19.440Z,10.97
2022-11-14T10:32:55.211Z,11.32
2022-11-14T10:35:48.067Z,11.79
2022-11-14T10:38:48.585Z,12.88
2022-11-14T10:41:34.669Z,12.83
2022-11-14T10:44:19.036Z,12.82
2022-11-14T10:46:51.351Z,13.03
2022-11-14T10:49:26.118Z,13.66
2022-11-14T10:51:59.061Z,15.40
2022-11-14T10:54:44.088Z,15.16
2022-11-14T10:57:22.543Z,15.43
2022-11-14T10:59:52.847Z,15.45
2022-11-14T11:02:19.778Z,16.60
2022-11-14T11:04:46.746Z,16.27
2022-11-14T11:07:40.348Z,17.58
2022-11-14T11:10:40.139Z,18.62
2022-11-14T11:13:12.599Z,19.42
2022-11-14T11:15:45.927Z,21.22
2022-11-14T11:18:29.189Z,23.20
2022-11-14T11:21:08.333Z,22.92
2022-11-14T11:23:47.593Z,21.53
2022-11-14T11:26:28.377Z,21.16
2022-11-14T11:29:23.680Z,22.46
2022-11-14T11:31:58.600Z,23.25
2022-11-14T11:34:32.737Z,22.96
2022-11-14T11:37:16.053Z,24.86
2022-11-14T11:39:53.020Z,26.91
2022-11-14T11:43:37.328Z,27.08
2022-11-14T11:45:53.480Z,25.24
2022-11-14T11:48:26.443Z,25.26
2022-11-14T11:50:53.698Z,21.97
2022-11-14T11:53:39.254Z,21.15
2022-11-14T11:56:13.305Z,22.24
2022-11-14T11:58:48.525Z,21.65
2022-11-14T12:01:19.669Z,20.62
2022-11-14T12:03:54.501Z,19.61
2022-11-14T12:06:28.511Z,20.14
2022-11-14T12:09:15.189Z,20.98
2022-11-14T12:12:04.795Z,20.32
2022-11-14T12:14:55.499Z,19.92
2022-11-14T12:17:34.239Z,20.88
2022-11-14T12:20:32.063Z,20.16
2022-11-14T12:23:25.777Z,21.43
2022-11-14T12:26:20.289Z,22.30
2022-11-14T12:29:46.252Z,21.62
2022-11-14T12:32:30.427Z,20.63
2022-11-14T12:35:03.796Z,20.88
2022-11-14T12:37:40.409Z,21.35
2022-11-14T12:40:42.409Z,19.98
2022-11-14T12:43:36.482Z,19.49
2022-11-14T12:46:09.224Z,20.28
2022-11-14T12:48:41.411Z,19.64
2022-11-14T12:51:28.501Z,20.39
2022-11-14T12:53:59.278Z,20.06
2022-11-14T12:56:32.217Z,21.67
2022-11-14T12:59:22.845Z,21.94
2022-11-14T13:01:52.566Z,21.66
2022-11-14T13:04:42.507Z,21.14
2022-11-14T13:07:33.851Z,21.13
2022-11-14T13:10:34.810Z,20.20
2022-11-14T13:13:33.811Z,21.19
2022-11-14T13:16:34.634Z,20.36
2022-11-14T13:19:38.583Z,19.92
2022-11-14T13:22:11.540Z,17.90
2022-11-14T13:25:02.353Z,18.74
2022-11-14T13:28:05.130Z,17.41
2022-11-14T13:31:18.458Z,16.99
2022-11-14T13:34:04.162Z,17.37
2022-11-14T13:36:44.136Z,17.10
2022-11-14T13:39:34.830Z,16.62
2022-11-14T13:42:41.564Z,17.80
2022-11-14T13:45:41.472Z,18.47
2022-11-14T13:48:29.011Z,17.50
2022-11-14T13:51:28.521Z,17.30
2022-11-14T13:53:54.950Z,17.72
2022-11-14T13:57:07.422Z,18.57
2022-11-14T13:59:46.497Z,17.75
2022-11-14T14:02:21.251Z,17.63
2022-11-14T14:05:21.861Z,17.83
2022-11-14T14:08:28.028Z,17.49
2022-11-14T14:11:16.420Z,18.07
2022-11-14T14:14:17.261Z,17.85
2022-11-14T14:17:02.694Z,17.20
2022-11-14T14:19:41.090Z,17.47
2022-11-14T14:22:32.765Z,17.24
2022-11-14T14:25:29.227Z,16.87
2022-11-14T14:28:20.290Z,16.82
2022-11-14T14:31:02.590Z,16.60
2022-11-14T14:33:44.156Z,16.86
2022-11-14T14:36:28.049Z,16.95
2022-11-14T14:39:18.577Z,16.45
2022-11-14T14:41:48.291Z,16.75
2022-11-14T14:44:33.700Z,16.33
2022-11-14T14:47:24.514Z,16.26
2022-11-14T14:49:53.485Z,16.23
2022-11-14T14:52:35.979Z,15.15
2022-11-14T14:55:06.586Z,14.89
2022-11-14T14:57:33.494Z,14.47
2022-11-14T15:00:01.999Z,13.96
2022-11-14T15:02:30.010Z,13.32
2022-11-14T15:05:00.531Z,13.19
2022-11-14T15:07:29.847Z,13.23
2022-11-14T15:10:03.952Z,13.04
2022-11-14T15:12:32.503Z,12.85
2022-11-14T15:15:00.968Z,13.17
2022-11-14T15:17:34.545Z,13.15
2022-11-14T15:20:03.114Z,13.25
2022-11-14T15:22:32.693Z,13.14
2022-11-14T15:25:15.019Z,13.04
2022-11-14T15:27:54.194Z,13.13
2022-11-14T15:30:30.798Z,12.85
2022-11-14T15:33:05.776Z,12.35
2022-11-14T15:35:35.928Z,12.15
2022-11-14T15:41:19.135Z,12.33
2022-11-14T15:43:53.289Z,12.30
2022-11-14T15:46:29.279Z,12.42
2022-11-14T15:48:56.360Z,12.48
2022-11-14T15:52:00.725Z,12.47
2022-11-14T15:54:33.310Z,12.28
2022-11-14T15:57:14.404Z,12.08
2022-11-14T15:59:43.604Z,11.87
2022-11-14T16:02:21.973Z,11.88
2022-11-14T16:04:52.034Z,11.74
2022-11-14T16:07:19.271Z,11.80
2022-11-14T16:09:49.133Z,11.82
2022-11-14T16:12:16.192Z,11.97
2022-11-14T16:14:45.658Z,12.02
2022-11-14T16:17:17.587Z,11.98
2022-11-14T16:19:45.007Z,12.17
2022-11-14T16:22:20.182Z,11.99
2022-11-14T16:24:49.489Z,12.01
2022-11-14T16:27:16.299Z,11.86
2022-11-14T16:29:46.206Z,11.73
2022-11-14T16:32:13.217Z,11.89
2022-11-14T16:34:42.223Z,11.82
2022-11-14T16:37:13.555Z,11.81
2022-11-14T16:39:43.189Z,11.76
2022-11-14T16:42:11.305Z,11.53
2022-11-14T16:44:42.933Z,11.30
2022-11-14T16:47:22.926Z,11.47
2022-11-14T16:49:58.852Z,11.38
2022-11-14T16:52:28.714Z,11.64
2022-11-14T16:54:56.060Z,11.58
2022-11-14T16:57:29.637Z,11.56
2022-11-14T16:59:58.966Z,11.44
2022-11-14T17:02:26.276Z,11.32
2022-11-14T17:04:53.133Z,11.12
2022-11-14T17:07:23.094Z,10.95
2022-11-14T17:09:50.119Z,10.88
2022-11-14T17:12:17.029Z,10.97
2022-11-14T17:14:43.935Z,10.98
2022-11-14T17:17:10.828Z,11.13
2022-11-14T17:19:45.552Z,11.03
2022-11-14T17:22:13.937Z,11.02
2022-11-14T17:24:43.979Z,10.50
2022-11-14T17:27:12.865Z,10.76
2022-11-14T17:29:42.389Z,10.88
2022-11-14T17:32:09.286Z,10.93
2022-11-14T17:34:36.189Z,10.91
2022-11-14T17:37:03.171Z,10.94
2022-11-14T17:39:35.037Z,10.87
2022-11-14T17:42:02.035Z,10.88
2022-11-14T17:44:32.076Z,10.74
2022-11-14T17:46:58.963Z,10.54
2022-11-14T17:49:28.154Z,10.71
2022-11-14T17:51:55.065Z,10.90
2022-11-14T17:54:22.000Z,10.80
2022-11-14T17:56:54.652Z,10.82
2022-11-14T17:59:22.172Z,10.72
2022-11-14T18:01:54.542Z,10.54
2022-11-14T18:04:24.543Z,10.37
2022-11-14T18:06:51.910Z,10.34
2022-11-14T18:09:18.882Z,10.53
2022-11-14T18:11:48.740Z,10.52
2022-11-14T18:14:22.697Z,10.17
2022-11-14T18:17:11.859Z,10.08
2022-11-14T18:19:38.674Z,10.09
2022-11-14T18:22:05.587Z,10.17
2022-11-14T18:24:32.528Z,10.25
2022-11-14T18:26:59.430Z,10.20
2022-11-14T18:29:28.341Z,10.10
2022-11-14T18:31:55.175Z,10.14
2022-11-14T18:34:22.113Z,10.28
2022-11-14T18:36:49.078Z,10.11
2022-11-14T18:39:20.481Z,10.04
2022-11-14T18:41:47.376Z,9.96
2022-11-14T18:44:21.080Z,9.99
2022-11-14T18:46:47.950Z,10.02
2022-11-14T18:49:14.872Z,10.06
2022-11-14T18:51:42.064Z,10.09
2022-11-14T18:54:18.864Z,10.17
2022-11-14T18:56:48.321Z,10.26
2022-11-14T18:59:18.308Z,10.17
2022-11-14T19:01:47.728Z,10.17
2022-11-14T19:04:17.301Z,10.29
2022-11-14T19:06:44.301Z,10.08
2022-11-14T19:09:16.059Z,10.15
2022-11-14T19:12:02.534Z,10.23
2022-11-14T19:14:29.484Z,10.33
2022-11-14T19:16:59.550Z,10.25
2022-11-14T19:19:29.116Z,10.13
2022-11-14T19:21:58.597Z,10.14
2022-11-14T19:24:25.479Z,10.24
2022-11-14T19:26:52.421Z,10.14
2022-11-14T19:29:23.849Z,10.10
2022-11-14T19:31:50.750Z,10.07
2022-11-14T19:34:20.610Z,10.00
2022-11-14T19:36:59.871Z,10.02
2022-11-14T19:39:33.313Z,9.98
2022-11-14T19:42:04.783Z,10.00
2022-11-14T19:44:32.025Z,9.80
2022-11-14T19:46:58.966Z,9.98
2022-11-14T19:49:25.878Z,9.92
2022-11-14T19:51:55.785Z,10.08
2022-11-14T19:54:22.676Z,10.03
2022-11-14T19:56:49.558Z,10.08
2022-11-14T19:59:21.365Z,9.95
2022-11-14T20:01:55.251Z,9.89
2022-11-14T20:04:23.034Z,9.68
2022-11-14T20:06:50.233Z,9.73
2022-11-14T20:09:19.765Z,9.59
2022-11-14T20:11:46.737Z,9.69
2022-11-14T20:14:13.746Z,9.69
2022-11-14T20:16:40.842Z,9.79
2022-11-14T20:19:08.015Z,9.64
2022-11-14T20:21:39.945Z,9.66
2022-11-14T20:24:10.685Z,9.97
2022-11-14T20:26:37.690Z,10.09
2022-11-14T20:29:06.862Z,10.12
2022-11-14T20:31:33.787Z,10.04
2022-11-14T20:34:00.852Z,10.05
2022-11-14T20:36:39.005Z,10.02
2022-11-14T20:39:20.116Z,10.01
2022-11-14T20:41:47.665Z,9.99
2022-11-14T20:44:14.729Z,9.85
2022-11-14T20:46:41.679Z,10.06
2022-11-14T20:49:11.078Z,9.99
2022-11-14T20:51:38.112Z,10.27
2022-11-14T20:54:05.166Z,10.19
2022-11-14T20:56:32.151Z,9.91
2022-11-14T20:59:02.082Z,9.91
2022-11-14T21:01:29.010Z,10.03
2022-11-14T21:03:55.926Z,9.91
2022-11-14T21:06:27.287Z,10.03
2022-11-14T21:08:57.171Z,10.27
2022-11-14T21:11:24.037Z,10.17
2022-11-14T21:13:59.329Z,10.02
2022-11-14T21:16:31.934Z,10.07
2022-11-14T21:19:03.267Z,10.07
2022-11-14T21:21:33.917Z,10.20
2022-11-14T21:24:04.082Z,10.22
2022-11-14T21:26:34.650Z,10.02
2022-11-14T21:29:09.026Z,10.01
2022-11-14T21:31:42.187Z,10.20
2022-11-14T21:34:15.090Z,10.27
2022-11-14T21:36:46.384Z,10.11
2022-11-14T21:39:16.504Z,10.09
2022-11-14T21:41:48.400Z,10.12
2022-11-14T21:44:17.025Z,9.77
2022-11-14T21:46:47.226Z,9.82
2022-11-14T21:49:14.463Z,9.83
2022-11-14T21:51:41.441Z,9.81
2022-11-14T21:54:11.511Z,9.62
2022-11-14T21:56:40.492Z,9.62
2022-11-14T21:59:21.295Z,9.63
2022-11-14T22:02:11.168Z,9.50
2022-11-14T22:04:41.224Z,9.48
2022-11-14T22:07:08.648Z,9.50
2022-11-14T22:09:38.713Z,9.60
2022-11-14T22:12:08.269Z,9.70
2022-11-14T22:14:35.116Z,9.66
2022-11-14T22:17:01.992Z,9.68
2022-11-14T22:19:28.827Z,9.56
2022-11-14T22:21:55.935Z,9.63
2022-11-14T22:24:25.381Z,9.73
2022-11-14T22:26:52.311Z,9.59
2022-11-14T22:29:19.186Z,9.44
2022-11-14T22:31:46.263Z,9.60
2022-11-14T22:34:13.346Z,9.64
2022-11-14T22:36:40.277Z,9.67
2022-11-14T22:39:07.139Z,9.83
2022-11-14T22:41:34.156Z,9.84
2022-11-14T22:44:01.657Z,9.71
2022-11-14T22:46:32.172Z,9.52
2022-11-14T22:48:59.298Z,9.68
2022-11-14T22:51:28.000Z,9.37
2022-11-14T22:53:58.464Z,9.28
2022-11-14T22:56:28.917Z,9.10
2022-11-14T22:58:58.835Z,9.27
2022-11-14T23:01:31.661Z,9.27
2022-11-14T23:04:04.809Z,9.37
2022-11-14T23:06:34.241Z,9.41
2022-11-14T23:09:02.791Z,9.38
2022-11-14T23:11:31.585Z,9.35
2022-11-14T23:14:00.543Z,8.97
2022-11-14T23:16:31.254Z,8.98
2022-11-14T23:19:02.836Z,8.97
2022-11-14T23:21:37.030Z,9.09
2022-11-14T23:24:08.637Z,9.21
2022-11-14T23:26:35.548Z,9.12
2022-11-14T23:29:05.317Z,9.05
2022-11-14T23:31:34.691Z,9.09
2022-11-14T23:34:01.588Z,9.08
2022-11-14T23:36:29.280Z,9.08
2022-11-14T23:38:56.298Z,9.00
2022-11-14T23:41:27.918Z,8.95
2022-11-14T23:43:54.779Z,9.04
2022-11-14T23:46:21.717Z,9.04
2022-11-14T23:48:51.291Z,9.13
2022-11-14T23:51:20.764Z,9.10
2022-11-14T23:53:50.638Z,9.04
2022-11-14T23:56:17.563Z,9.03
2022-11-14T23:58:49.118Z,8.92
